sensor_id;sensor_type;location;lat;lon;timestamp;pressure;altitude;pressure_sealevel;temperature;humidity
77583;BME280;66726;52.388;9.986;2023-11-18T00:00:27;101721.97;;;4.86;89.33
77583;BME280;66726;52.388;9.986;2023-11-18T00:02:57;101727.09;;;4.89;89.23
77583;BME280;66726;52.388;9.986;2023-11-18T00:05:26;101731.75;;;4.86;88.39
77583;BME280;66726;52.388;9.986;2023-11-18T00:07:54;101727.66;;;4.80;88.31
77583;BME280;66726;52.388;9.986;2023-11-18T00:10:22;101727.41;;;4.71;89.86
77583;BME280;66726;52.388;9.986;2023-11-18T00:12:50;101725.91;;;4.67;90.52
77583;BME280;66726;52.388;9.986;2023-11-18T00:15:19;101727.94;;;4.49;88.70
77583;BME280;66726;52.388;9.986;2023-11-18T00:17:47;101723.41;;;4.51;90.17
77583;BME280;66726;52.388;9.986;2023-11-18T00:20:16;101719.16;;;4.48;90.39
77583;BME280;66726;52.388;9.986;2023-11-18T00:22:45;101720.16;;;4.46;88.48
77583;BME280;66726;52.388;9.986;2023-11-18T00:25:13;101717.97;;;4.52;88.62
77583;BME280;66726;52.388;9.986;2023-11-18T00:27:42;101723.88;;;4.43;87.93
77583;BME280;66726;52.388;9.986;2023-11-18T00:30:11;101724.94;;;4.41;88.27
77583;BME280;66726;52.388;9.986;2023-11-18T00:32:39;101730.44;;;4.38;88.12
77583;BME280;66726;52.388;9.986;2023-11-18T00:35:08;101736.59;;;4.38;87.66
77583;BME280;66726;52.388;9.986;2023-11-18T00:37:39;101728.72;;;4.37;87.75
77583;BME280;66726;52.388;9.986;2023-11-18T00:40:08;101731.00;;;4.29;86.84
77583;BME280;66726;52.388;9.986;2023-11-18T00:42:37;101731.09;;;4.27;87.59
77583;BME280;66726;52.388;9.986;2023-11-18T00:45:06;101733.56;;;4.30;88.07
77583;BME280;66726;52.388;9.986;2023-11-18T00:47:35;101737.81;;;4.33;88.99
77583;BME280;66726;52.388;9.986;2023-11-18T00:50:04;101734.88;;;4.37;88.94
77583;BME280;66726;52.388;9.986;2023-11-18T00:52:35;101731.66;;;4.32;88.46
77583;BME280;66726;52.388;9.986;2023-11-18T00:55:08;101722.94;;;4.30;89.55
77583;BME280;66726;52.388;9.986;2023-11-18T00:57:38;101733.56;;;4.30;90.48
77583;BME280;66726;52.388;9.986;2023-11-18T01:00:11;101744.81;;;4.34;90.15
77583;BME280;66726;52.388;9.986;2023-11-18T01:02:41;101743.09;;;4.33;89.85
77583;BME280;66726;52.388;9.986;2023-11-18T01:05:09;101738.94;;;4.29;91.33
77583;BME280;66726;52.388;9.986;2023-11-18T01:07:38;101750.22;;;4.32;91.23
77583;BME280;66726;52.388;9.986;2023-11-18T01:10:10;101747.09;;;4.40;91.48
77583;BME280;66726;52.388;9.986;2023-11-18T01:12:38;101761.00;;;4.43;91.68
77583;BME280;66726;52.388;9.986;2023-11-18T01:15:08;101761.00;;;4.43;91.54
77583;BME280;66726;52.388;9.986;2023-11-18T01:17:38;101765.25;;;4.46;91.47
77583;BME280;66726;52.388;9.986;2023-11-18T01:20:08;101759.94;;;4.46;90.93
77583;BME280;66726;52.388;9.986;2023-11-18T01:22:38;101767.91;;;4.46;91.29
77583;BME280;66726;52.388;9.986;2023-11-18T01:25:10;101762.91;;;4.41;91.97
77583;BME280;66726;52.388;9.986;2023-11-18T01:27:38;101775.13;;;4.44;92.01
77583;BME280;66726;52.388;9.986;2023-11-18T01:30:08;101773.50;;;4.41;91.67
77583;BME280;66726;52.388;9.986;2023-11-18T01:32:36;101786.00;;;4.39;91.73
77583;BME280;66726;52.388;9.986;2023-11-18T01:35:08;101780.22;;;4.33;92.23
77583;BME280;66726;52.388;9.986;2023-11-18T01:37:37;101781.53;;;4.26;92.66
77583;BME280;66726;52.388;9.986;2023-11-18T01:40:07;101785.06;;;4.26;93.26
77583;BME280;66726;52.388;9.986;2023-11-18T01:42:37;101780.13;;;4.20;92.73
77583;BME280;66726;52.388;9.986;2023-11-18T01:45:05;101786.28;;;4.21;93.42
77583;BME280;66726;52.388;9.986;2023-11-18T01:47:39;101782.88;;;4.19;93.04
77583;BME280;66726;52.388;9.986;2023-11-18T01:50:09;101785.44;;;4.20;93.78
77583;BME280;66726;52.388;9.986;2023-11-18T01:52:40;101779.09;;;4.23;93.94
77583;BME280;66726;52.388;9.986;2023-11-18T01:55:13;101789.88;;;4.20;92.57
77583;BME280;66726;52.388;9.986;2023-11-18T01:57:42;101780.22;;;4.19;93.53
77583;BME280;66726;52.388;9.986;2023-11-18T02:00:13;101773.59;;;4.12;92.43
77583;BME280;66726;52.388;9.986;2023-11-18T02:02:45;101767.63;;;4.22;92.58
77583;BME280;66726;52.388;9.986;2023-11-18T02:05:15;101774.66;;;4.23;92.58
77583;BME280;66726;52.388;9.986;2023-11-18T02:07:45;101779.75;;;4.26;92.16
77583;BME280;66726;52.388;9.986;2023-11-18T02:10:14;101780.34;;;4.17;91.86
77583;BME280;66726;52.388;9.986;2023-11-18T02:12:50;101786.28;;;4.21;92.39
77583;BME280;66726;52.388;9.986;2023-11-18T02:15:22;101789.31;;;4.29;92.34
77583;BME280;66726;52.388;9.986;2023-11-18T02:17:53;101793.75;;;4.28;92.83
77583;BME280;66726;52.388;9.986;2023-11-18T02:20:22;101792.16;;;4.26;92.98
77583;BME280;66726;52.388;9.986;2023-11-18T02:22:52;101800.97;;;4.26;93.38
77583;BME280;66726;52.388;9.986;2023-11-18T02:25:24;101799.34;;;4.24;93.87
77583;BME280;66726;52.388;9.986;2023-11-18T02:27:55;101806.44;;;4.23;94.05
77583;BME280;66726;52.388;9.986;2023-11-18T02:30:23;101805.53;;;4.24;94.36
77583;BME280;66726;52.388;9.986;2023-11-18T02:32:59;101817.06;;;4.23;94.09
77583;BME280;66726;52.388;9.986;2023-11-18T02:35:32;101806.44;;;4.23;95.44
77583;BME280;66726;52.388;9.986;2023-11-18T02:38:04;101819.03;;;4.20;95.75
77583;BME280;66726;52.388;9.986;2023-11-18T02:40:39;101819.31;;;4.15;96.13
77583;BME280;66726;52.388;9.986;2023-11-18T02:43:12;101821.03;;;4.16;95.96
77583;BME280;66726;52.388;9.986;2023-11-18T02:45:42;101825.47;;;4.16;96.77
77583;BME280;66726;52.388;9.986;2023-11-18T02:48:11;101821.41;;;4.10;97.06
77583;BME280;66726;52.388;9.986;2023-11-18T02:50:41;101823.28;;;4.08;98.10
77583;BME280;66726;52.388;9.986;2023-11-18T02:53:09;101815.50;;;4.05;98.15
77583;BME280;66726;52.388;9.986;2023-11-18T02:55:38;101814.47;;;3.93;99.23
77583;BME280;66726;52.388;9.986;2023-11-18T02:58:08;101814.13;;;3.84;100.00
77583;BME280;66726;52.388;9.986;2023-11-18T03:00:37;101812.34;;;3.84;100.00
77583;BME280;66726;52.388;9.986;2023-11-18T03:03:05;101809.50;;;3.87;100.00
77583;BME280;66726;52.388;9.986;2023-11-18T03:05:34;101816.25;;;3.93;100.00
77583;BME280;66726;52.388;9.986;2023-11-18T03:08:03;101808.13;;;3.96;100.00
77583;BME280;66726;52.388;9.986;2023-11-18T03:10:33;101800.94;;;3.98;100.00
77583;BME280;66726;52.388;9.986;2023-11-18T03:13:02;101805.09;;;4.02;100.00
77583;BME280;66726;52.388;9.986;2023-11-18T03:15:30;101796.97;;;4.05;100.00
77583;BME280;66726;52.388;9.986;2023-11-18T03:17:59;101800.28;;;4.08;100.00
77583;BME280;66726;52.388;9.986;2023-11-18T03:20:28;101788.81;;;4.08;100.00
77583;BME280;66726;52.388;9.986;2023-11-18T03:23:00;101783.53;;;4.08;100.00
77583;BME280;66726;52.388;9.986;2023-11-18T03:25:29;101791.28;;;4.11;100.00
77583;BME280;66726;52.388;9.986;2023-11-18T03:27:57;101793.00;;;4.12;100.00
77583;BME280;66726;52.388;9.986;2023-11-18T03:30:26;101789.31;;;4.15;100.00
77583;BME280;66726;52.388;9.986;2023-11-18T03:32:55;101791.88;;;4.16;100.00
77583;BME280;66726;52.388;9.986;2023-11-18T03:35:25;101793.47;;;4.19;100.00
77583;BME280;66726;52.388;9.986;2023-11-18T03:37:53;101788.84;;;4.22;100.00
77583;BME280;66726;52.388;9.986;2023-11-18T03:40:22;101792.06;;;4.27;100.00
77583;BME280;66726;52.388;9.986;2023-11-18T03:42:50;101799.44;;;4.36;100.00
77583;BME280;66726;52.388;9.986;2023-11-18T03:45:20;101799.63;;;4.33;98.77
77583;BME280;66726;52.388;9.986;2023-11-18T03:47:48;101798.38;;;4.25;96.91
77583;BME280;66726;52.388;9.986;2023-11-18T03:50:17;101792.25;;;4.24;97.82
77583;BME280;66726;52.388;9.986;2023-11-18T03:52:46;101793.66;;;4.16;96.61
77583;BME280;66726;52.388;9.986;2023-11-18T03:55:15;101796.97;;;4.19;96.49
77583;BME280;66726;52.388;9.986;2023-11-18T03:57:44;101798.56;;;4.22;96.53
77583;BME280;66726;52.388;9.986;2023-11-18T04:00:16;101799.81;;;4.16;95.60
77583;BME280;66726;52.388;9.986;2023-11-18T04:02:44;101802.00;;;4.09;96.44
77583;BME280;66726;52.388;9.986;2023-11-18T04:05:13;101808.34;;;4.07;96.66
77583;BME280;66726;52.388;9.986;2023-11-18T04:07:41;101807.66;;;4.03;97.10
77583;BME280;66726;52.388;9.986;2023-11-18T04:10:11;101801.69;;;4.00;95.85
77583;BME280;66726;52.388;9.986;2023-11-18T04:12:39;101807.47;;;3.92;95.00
77583;BME280;66726;52.388;9.986;2023-11-18T04:15:08;101796.66;;;3.95;95.56
77583;BME280;66726;52.388;9.986;2023-11-18T04:17:38;101803.19;;;3.90;94.71
77583;BME280;66726;52.388;9.986;2023-11-18T04:20:10;101796.19;;;3.89;94.67
77583;BME280;66726;52.388;9.986;2023-11-18T04:22:40;101795.53;;;3.99;94.55
77583;BME280;66726;52.388;9.986;2023-11-18T04:25:09;101797.81;;;4.05;94.11
77583;BME280;66726;52.388;9.986;2023-11-18T04:27:39;101790.03;;;3.88;92.25
77583;BME280;66726;52.388;9.986;2023-11-18T04:30:12;101794.47;;;3.88;93.56
77583;BME280;66726;52.388;9.986;2023-11-18T04:32:41;101788.31;;;3.87;93.43
77583;BME280;66726;52.388;9.986;2023-11-18T04:35:10;101785.97;;;3.83;93.15
77583;BME280;66726;52.388;9.986;2023-11-18T04:37:40;101787.50;;;3.87;93.88
77583;BME280;66726;52.388;9.986;2023-11-18T04:40:11;101786.75;;;3.99;94.34
77583;BME280;66726;52.388;9.986;2023-11-18T04:42:41;101777.47;;;3.92;93.89
77583;BME280;66726;52.388;9.986;2023-11-18T04:45:09;101785.59;;;3.89;94.29
77583;BME280;66726;52.388;9.986;2023-11-18T04:47:38;101774.13;;;3.88;95.36
77583;BME280;66726;52.388;9.986;2023-11-18T04:50:07;101776.53;;;3.93;95.99
77583;BME280;66726;52.388;9.986;2023-11-18T04:52:36;101786.44;;;3.89;96.19
77583;BME280;66726;52.388;9.986;2023-11-18T04:55:05;101772.41;;;3.87;96.72
77583;BME280;66726;52.388;9.986;2023-11-18T04:57:34;101760.69;;;3.77;97.67
77583;BME280;66726;52.388;9.986;2023-11-18T05:00:05;101764.28;;;3.76;98.75
77583;BME280;66726;52.388;9.986;2023-11-18T05:02:38;101771.19;;;3.79;99.22
77583;BME280;66726;52.388;9.986;2023-11-18T05:05:07;101775.44;;;3.81;98.42
77583;BME280;66726;52.388;9.986;2023-11-18T05:07:35;101779.63;;;3.85;98.94
77583;BME280;66726;52.388;9.986;2023-11-18T05:10:05;101774.41;;;3.84;98.50
77583;BME280;66726;52.388;9.986;2023-11-18T05:12:35;101773.38;;;3.86;98.70
77583;BME280;66726;52.388;9.986;2023-11-18T05:15:07;101774.06;;;3.90;98.69
77583;BME280;66726;52.388;9.986;2023-11-18T05:17:35;101762.31;;;3.94;98.96
77583;BME280;66726;52.388;9.986;2023-11-18T05:20:06;101753.72;;;3.90;98.74
77583;BME280;66726;52.388;9.986;2023-11-18T05:22:36;101757.19;;;3.91;99.51
77583;BME280;66726;52.388;9.986;2023-11-18T05:25:05;101757.00;;;3.94;99.30
77583;BME280;66726;52.388;9.986;2023-11-18T05:27:34;101762.16;;;3.97;99.46
77583;BME280;66726;52.388;9.986;2023-11-18T05:30:04;101760.31;;;3.97;99.61
77583;BME280;66726;52.388;9.986;2023-11-18T05:32:33;101758.53;;;3.98;99.42
77583;BME280;66726;52.388;9.986;2023-11-18T05:35:01;101759.50;;;3.97;99.60
77583;BME280;66726;52.388;9.986;2023-11-18T05:37:31;101750.59;;;3.98;99.63
77583;BME280;66726;52.388;9.986;2023-11-18T05:40:03;101752.22;;;4.00;99.72
77583;BME280;66726;52.388;9.986;2023-11-18T05:42:33;101754.56;;;4.05;99.91
77583;BME280;66726;52.388;9.986;2023-11-18T05:45:09;101751.84;;;4.06;99.90
77583;BME280;66726;52.388;9.986;2023-11-18T05:47:44;101751.06;;;4.04;99.19
77583;BME280;66726;52.388;9.986;2023-11-18T05:50:13;101742.44;;;4.01;99.84
77583;BME280;66726;52.388;9.986;2023-11-18T05:52:42;101739.06;;;3.99;99.94
77583;BME280;66726;52.388;9.986;2023-11-18T05:55:10;101737.34;;;3.98;100.00
77583;BME280;66726;52.388;9.986;2023-11-18T05:57:39;101736.22;;;4.02;100.00
77583;BME280;66726;52.388;9.986;2023-11-18T06:00:10;101740.66;;;4.01;100.00
77583;BME280;66726;52.388;9.986;2023-11-18T06:02:50;101738.00;;;4.01;100.00
77583;BME280;66726;52.388;9.986;2023-11-18T06:05:19;101743.03;;;4.06;100.00
77583;BME280;66726;52.388;9.986;2023-11-18T06:07:47;101736.59;;;4.10;100.00
77583;BME280;66726;52.388;9.986;2023-11-18T06:10:17;101742.09;;;4.07;100.00
77583;BME280;66726;52.388;9.986;2023-11-18T06:12:47;101735.06;;;4.06;100.00
77583;BME280;66726;52.388;9.986;2023-11-18T06:15:17;101736.78;;;4.07;100.00
77583;BME280;66726;52.388;9.986;2023-11-18T06:17:45;101736.78;;;4.07;100.00
77583;BME280;66726;52.388;9.986;2023-11-18T06:20:14;101738.47;;;4.08;100.00
77583;BME280;66726;52.388;9.986;2023-11-18T06:22:44;101740.19;;;4.09;100.00
77583;BME280;66726;52.388;9.986;2023-11-18T06:25:12;101736.00;;;4.05;100.00
77583;BME280;66726;52.388;9.986;2023-11-18T06:27:40;101736.00;;;4.05;100.00
77583;BME280;66726;52.388;9.986;2023-11-18T06:30:13;101733.38;;;4.05;100.00
77583;BME280;66726;52.388;9.986;2023-11-18T06:32:44;101729.97;;;4.03;100.00
77583;BME280;66726;52.388;9.986;2023-11-18T06:35:14;101730.91;;;4.02;100.00
77583;BME280;66726;52.388;9.986;2023-11-18T06:37:42;101743.97;;;4.05;100.00
77583;BME280;66726;52.388;9.986;2023-11-18T06:40:12;101751.25;;;4.01;100.00
77583;BME280;66726;52.388;9.986;2023-11-18T06:42:45;101748.50;;;3.89;100.00
77583;BME280;66726;52.388;9.986;2023-11-18T06:45:14;101743.13;;;3.90;100.00
77583;BME280;66726;52.388;9.986;2023-11-18T06:47:45;101755.31;;;3.93;100.00
77583;BME280;66726;52.388;9.986;2023-11-18T06:50:13;101757.59;;;3.99;100.00
77583;BME280;66726;52.388;9.986;2023-11-18T06:52:43;101756.84;;;3.97;100.00
77583;BME280;66726;52.388;9.986;2023-11-18T06:55:15;101761.38;;;3.95;100.00
77583;BME280;66726;52.388;9.986;2023-11-18T06:57:43;101762.16;;;3.97;100.00
77583;BME280;66726;52.388;9.986;2023-11-18T07:00:13;101761.09;;;3.99;100.00
77583;BME280;66726;52.388;9.986;2023-11-18T07:02:42;101763.63;;;4.01;100.00
77583;BME280;66726;52.388;9.986;2023-11-18T07:05:12;101759.31;;;4.00;100.00
77583;BME280;66726;52.388;9.986;2023-11-18T07:07:42;101760.91;;;4.02;100.00
77583;BME280;66726;52.388;9.986;2023-11-18T07:10:11;101757.53;;;4.00;100.00
77583;BME280;66726;52.388;9.986;2023-11-18T07:12:40;101770.84;;;3.99;99.76
77583;BME280;66726;52.388;9.986;2023-11-18T07:15:09;101764.41;;;4.03;99.06
77583;BME280;66726;52.388;9.986;2023-11-18T07:17:38;101768.78;;;4.04;99.27
77583;BME280;66726;52.388;9.986;2023-11-18T07:20:08;101761.09;;;3.99;98.69
77583;BME280;66726;52.388;9.986;2023-11-18T07:22:41;101768.47;;;4.08;99.31
77583;BME280;66726;52.388;9.986;2023-11-18T07:25:09;101785.31;;;4.07;98.45
77583;BME280;66726;52.388;9.986;2023-11-18T07:27:37;101779.94;;;4.09;98.77
77583;BME280;66726;52.388;9.986;2023-11-18T07:30:07;101778.34;;;4.06;97.83
77583;BME280;66726;52.388;9.986;2023-11-18T07:32:38;101778.53;;;4.03;98.43
77583;BME280;66726;52.388;9.986;2023-11-18T07:35:07;101771.31;;;4.05;99.02
77583;BME280;66726;52.388;9.986;2023-11-18T07:37:36;101775.75;;;4.05;99.08
77583;BME280;66726;52.388;9.986;2023-11-18T07:40:07;101779.38;;;4.04;99.29
77583;BME280;66726;52.388;9.986;2023-11-18T07:42:39;101790.81;;;4.04;100.00
77583;BME280;66726;52.388;9.986;2023-11-18T07:45:08;101789.97;;;4.04;99.66
77583;BME280;66726;52.388;9.986;2023-11-18T07:47:45;101785.63;;;4.03;100.00
77583;BME280;66726;52.388;9.986;2023-11-18T07:50:16;101789.97;;;4.04;100.00
77583;BME280;66726;52.388;9.986;2023-11-18T07:52:44;101794.31;;;4.05;100.00
77583;BME280;66726;52.388;9.986;2023-11-18T07:55:14;101791.66;;;4.05;100.00
77583;BME280;66726;52.388;9.986;2023-11-18T07:57:42;101780.00;;;4.07;100.00
77583;BME280;66726;52.388;9.986;2023-11-18T08:00:13;101779.19;;;4.07;100.00
77583;BME280;66726;52.388;9.986;2023-11-18T08:02:42;101780.88;;;4.08;100.00
77583;BME280;66726;52.388;9.986;2023-11-18T08:05:11;101787.03;;;4.08;100.00
77583;BME280;66726;52.388;9.986;2023-11-18T08:07:42;101787.88;;;4.09;100.00
77583;BME280;66726;52.388;9.986;2023-11-18T08:10:13;101780.69;;;4.11;100.00
77583;BME280;66726;52.388;9.986;2023-11-18T08:12:46;101780.69;;;4.11;100.00
77583;BME280;66726;52.388;9.986;2023-11-18T08:15:15;101787.69;;;4.12;100.00
77583;BME280;66726;52.388;9.986;2023-11-18T08:17:43;101782.41;;;4.12;100.00
77583;BME280;66726;52.388;9.986;2023-11-18T08:20:11;101784.84;;;4.15;100.00
77583;BME280;66726;52.388;9.986;2023-11-18T08:22:42;101771.59;;;4.15;100.00
77583;BME280;66726;52.388;9.986;2023-11-18T08:25:13;101774.06;;;4.18;100.00
77583;BME280;66726;52.388;9.986;2023-11-18T08:27:42;101777.56;;;4.19;100.00
77583;BME280;66726;52.388;9.986;2023-11-18T08:30:13;101757.22;;;4.19;100.00
77583;BME280;66726;52.388;9.986;2023-11-18T08:32:45;101761.59;;;4.20;100.00
77583;BME280;66726;52.388;9.986;2023-11-18T08:35:15;101758.75;;;4.23;100.00
77583;BME280;66726;52.388;9.986;2023-11-18T08:37:44;101743.69;;;4.24;100.00
77583;BME280;66726;52.388;9.986;2023-11-18T08:40:14;101737.34;;;4.26;100.00
77583;BME280;66726;52.388;9.986;2023-11-18T08:42:44;101735.53;;;4.27;100.00
77583;BME280;66726;52.388;9.986;2023-11-18T08:45:17;101730.91;;;4.30;100.00
77583;BME280;66726;52.388;9.986;2023-11-18T08:47:45;101726.47;;;4.31;100.00
77583;BME280;66726;52.388;9.986;2023-11-18T08:50:15;101740.38;;;4.34;100.00
77583;BME280;66726;52.388;9.986;2023-11-18T08:52:44;101752.66;;;4.35;100.00
77583;BME280;66726;52.388;9.986;2023-11-18T08:55:16;101743.69;;;4.38;100.00
77583;BME280;66726;52.388;9.986;2023-11-18T08:57:49;101739.97;;;4.40;100.00
77583;BME280;66726;52.388;9.986;2023-11-18T09:00:26;101747.00;;;4.41;100.00
77583;BME280;66726;52.388;9.986;2023-11-18T09:03:12;101762.72;;;4.44;100.00
77583;BME280;66726;52.388;9.986;2023-11-18T09:05:46;101768.75;;;4.46;100.00
77583;BME280;66726;52.388;9.986;2023-11-18T09:08:25;101776.50;;;4.49;100.00
77583;BME280;66726;52.388;9.986;2023-11-18T09:10:56;101769.34;;;4.51;100.00
77583;BME280;66726;52.388;9.986;2023-11-18T09:13:26;101762.13;;;4.53;100.00
77583;BME280;66726;52.388;9.986;2023-11-18T09:15:56;101764.69;;;4.55;100.00
77583;BME280;66726;52.388;9.986;2023-11-18T09:18:25;101762.78;;;4.57;100.00
77583;BME280;66726;52.388;9.986;2023-11-18T09:20:54;101761.72;;;4.59;100.00
77583;BME280;66726;52.388;9.986;2023-11-18T09:23:23;101759.00;;;4.61;100.00
77583;BME280;66726;52.388;9.986;2023-11-18T09:25:52;101750.91;;;4.63;100.00
77583;BME280;66726;52.388;9.986;2023-11-18T09:28:24;101736.72;;;4.64;100.00
77583;BME280;66726;52.388;9.986;2023-11-18T09:30:55;101738.44;;;4.65;100.00
77583;BME280;66726;52.388;9.986;2023-11-18T09:33:26;101741.81;;;4.67;100.00
77583;BME280;66726;52.388;9.986;2023-11-18T09:36:01;101743.34;;;4.71;100.00
77583;BME280;66726;52.388;9.986;2023-11-18T09:38:32;101735.19;;;4.74;100.00
77583;BME280;66726;52.388;9.986;2023-11-18T09:41:04;101742.72;;;4.80;100.00
77583;BME280;66726;52.388;9.986;2023-11-18T09:43:37;101741.59;;;4.84;100.00
77583;BME280;66726;52.388;9.986;2023-11-18T09:46:11;101745.75;;;4.88;100.00
77583;BME280;66726;52.388;9.986;2023-11-18T09:48:45;101750.84;;;4.91;100.00
77583;BME280;66726;52.388;9.986;2023-11-18T09:51:21;101742.81;;;4.92;100.00
77583;BME280;66726;52.388;9.986;2023-11-18T09:53:51;101735.59;;;4.94;100.00
77583;BME280;66726;52.388;9.986;2023-11-18T09:56:31;101733.69;;;4.96;100.00
77583;BME280;66726;52.388;9.986;2023-11-18T09:59:12;101751.22;;;4.99;100.00
77583;BME280;66726;52.388;9.986;2023-11-18T10:01:48;101742.19;;;5.01;100.00
77583;BME280;66726;52.388;9.986;2023-11-18T10:04:21;101745.72;;;5.02;100.00
77583;BME280;66726;52.388;9.986;2023-11-18T10:06:50;101752.72;;;5.03;100.00
77583;BME280;66726;52.388;9.986;2023-11-18T10:09:20;101738.28;;;5.07;100.00
77583;BME280;66726;52.388;9.986;2023-11-18T10:11:56;101718.56;;;5.11;100.00
77583;BME280;66726;52.388;9.986;2023-11-18T10:14:34;101703.41;;;5.13;100.00
77583;BME280;66726;52.388;9.986;2023-11-18T10:17:07;101699.59;;;5.17;100.00
77583;BME280;66726;52.388;9.986;2023-11-18T10:19:52;101692.25;;;5.21;100.00
77583;BME280;66726;52.388;9.986;2023-11-18T10:22:25;101697.25;;;5.25;100.00
77583;BME280;66726;52.388;9.986;2023-11-18T10:24:55;101700.69;;;5.27;99.05
77583;BME280;66726;52.388;9.986;2023-11-18T10:27:25;101702.13;;;5.31;98.97
77583;BME280;66726;52.388;9.986;2023-11-18T10:30:03;101695.78;;;5.34;98.00
77583;BME280;66726;52.388;9.986;2023-11-18T10:32:37;101694.59;;;5.38;96.94
77583;BME280;66726;52.388;9.986;2023-11-18T10:35:08;101691.78;;;5.41;96.77
77583;BME280;66726;52.388;9.986;2023-11-18T10:37:38;101685.41;;;5.43;96.20
77583;BME280;66726;52.388;9.986;2023-11-18T10:40:14;101688.78;;;5.45;95.10
77583;BME280;66726;52.388;9.986;2023-11-18T10:42:42;101679.88;;;5.46;95.40
77583;BME280;66726;52.388;9.986;2023-11-18T10:45:23;101668.81;;;5.52;95.16
77583;BME280;66726;52.388;9.986;2023-11-18T10:47:55;101662.44;;;5.55;94.97
77583;BME280;66726;52.388;9.986;2023-11-18T10:50:25;101665.84;;;5.57;94.40
77583;BME280;66726;52.388;9.986;2023-11-18T10:53:00;101663.84;;;5.60;94.45
77583;BME280;66726;52.388;9.986;2023-11-18T10:55:36;101658.41;;;5.62;94.16
77583;BME280;66726;52.388;9.986;2023-11-18T10:58:05;101659.25;;;5.62;92.79
77583;BME280;66726;52.388;9.986;2023-11-18T11:00:49;101653.72;;;5.66;91.35
77583;BME280;66726;52.388;9.986;2023-11-18T11:03:18;101639.50;;;5.67;91.34
77583;BME280;66726;52.388;9.986;2023-11-18T11:05:51;101638.56;;;5.68;91.65
77583;BME280;66726;52.388;9.986;2023-11-18T11:08:22;101645.44;;;5.70;91.48
77583;BME280;66726;52.388;9.986;2023-11-18T11:11:06;101628.56;;;5.71;91.35
77583;BME280;66726;52.388;9.986;2023-11-18T11:13:37;101624.94;;;5.72;89.95
77583;BME280;66726;52.388;9.986;2023-11-18T11:16:11;101629.19;;;5.75;90.55
77583;BME280;66726;52.388;9.986;2023-11-18T11:18:47;101623.53;;;5.79;90.91
77583;BME280;66726;52.388;9.986;2023-11-18T11:21:25;101619.94;;;5.80;90.92
77583;BME280;66726;52.388;9.986;2023-11-18T11:24:01;101610.88;;;5.83;90.58
77583;BME280;66726;52.388;9.986;2023-11-18T11:26:48;101600.06;;;5.86;90.75
77583;BME280;66726;52.388;9.986;2023-11-18T11:29:32;101598.03;;;5.89;90.18
77583;BME280;66726;52.388;9.986;2023-11-18T11:32:22;101600.50;;;5.92;89.36
77583;BME280;66726;52.388;9.986;2023-11-18T11:35:01;101600.38;;;5.94;88.33
77583;BME280;66726;52.388;9.986;2023-11-18T11:37:35;101602.72;;;5.98;88.44
77583;BME280;66726;52.388;9.986;2023-11-18T11:40:07;101590.78;;;6.04;89.45
77583;BME280;66726;52.388;9.986;2023-11-18T11:42:36;101595.56;;;6.11;89.17
77583;BME280;66726;52.388;9.986;2023-11-18T11:45:07;101600.56;;;6.16;88.94
77583;BME280;66726;52.388;9.986;2023-11-18T11:47:50;101600.09;;;6.22;87.86
77583;BME280;66726;52.388;9.986;2023-11-18T11:50:25;101592.84;;;6.24;87.01
77583;BME280;66726;52.388;9.986;2023-11-18T11:53:10;101585.84;;;6.23;86.69
77583;BME280;66726;52.388;9.986;2023-11-18T11:55:48;101595.50;;;6.24;87.87
77583;BME280;66726;52.388;9.986;2023-11-18T11:58:26;101592.84;;;6.24;86.66
77583;BME280;66726;52.388;9.986;2023-11-18T12:00:56;101582.22;;;6.24;87.80
77583;BME280;66726;52.388;9.986;2023-11-18T12:03:26;101569.91;;;6.23;86.84
77583;BME280;66726;52.388;9.986;2023-11-18T12:05:56;101553.94;;;6.23;87.31
77583;BME280;66726;52.388;9.986;2023-11-18T12:08:42;101545.84;;;6.25;87.47
77583;BME280;66726;52.388;9.986;2023-11-18T12:11:12;101539.66;;;6.24;87.08
77583;BME280;66726;52.388;9.986;2023-11-18T12:14:01;101532.66;;;6.23;85.57
77583;BME280;66726;52.388;9.986;2023-11-18T12:16:58;101535.44;;;6.22;83.31
77583;BME280;66726;52.388;9.986;2023-11-18T12:19:34;101538.19;;;6.20;82.86
77583;BME280;66726;52.388;9.986;2023-11-18T12:22:17;101540.13;;;6.18;82.77
77583;BME280;66726;52.388;9.986;2023-11-18T12:28:08;101533.94;;;6.18;83.88
77583;BME280;66726;52.388;9.986;2023-11-18T12:30:41;101537.56;;;6.17;83.54
77583;BME280;66726;52.388;9.986;2023-11-18T12:33:19;101531.44;;;6.16;83.31
77583;BME280;66726;52.388;9.986;2023-11-18T12:39:54;101531.44;;;6.16;84.19
77583;BME280;66726;52.388;9.986;2023-11-18T12:43:02;101539.28;;;6.18;83.67
77583;BME280;66726;52.388;9.986;2023-11-18T12:46:24;101547.16;;;6.19;84.00
77583;BME280;66726;52.388;9.986;2023-11-18T12:49:03;101550.75;;;6.18;83.57
77583;BME280;66726;52.388;9.986;2023-11-18T12:51:32;101539.16;;;6.19;84.07
77583;BME280;66726;52.388;9.986;2023-11-18T12:54:04;101523.31;;;6.18;84.78
77583;BME280;66726;52.388;9.986;2023-11-18T12:56:36;101511.81;;;6.17;85.23
77583;BME280;66726;52.388;9.986;2023-11-18T12:59:05;101510.97;;;6.17;84.85
77583;BME280;66726;52.388;9.986;2023-11-18T13:01:36;101520.78;;;6.16;84.94
77583;BME280;66726;52.388;9.986;2023-11-18T13:04:05;101517.16;;;6.17;85.49
77583;BME280;66726;52.388;9.986;2023-11-18T13:06:35;101515.34;;;6.18;85.87
77583;BME280;66726;52.388;9.986;2023-11-18T13:09:04;101512.69;;;6.18;85.46
77583;BME280;66726;52.388;9.986;2023-11-18T13:11:38;101518.00;;;6.18;86.00
77583;BME280;66726;52.388;9.986;2023-11-18T13:14:09;101506.50;;;6.17;85.60
77583;BME280;66726;52.388;9.986;2023-11-18T13:16:39;101509.06;;;6.19;85.87
77583;BME280;66726;52.388;9.986;2023-11-18T13:19:08;101503.84;;;6.17;85.92
77583;BME280;66726;52.388;9.986;2023-11-18T13:21:37;101511.81;;;6.17;85.33
77583;BME280;66726;52.388;9.986;2023-11-18T13:24:06;101500.34;;;6.17;84.75
77583;BME280;66726;52.388;9.986;2023-11-18T13:26:36;101500.34;;;6.17;84.68